createdAt,value
2022-08-17T00:10:03.761Z,26.58
2022-08-17T00:31:49.708Z,26.13
2022-08-17T00:53:39.540Z,23.90
2022-08-17T01:15:25.819Z,26.31
2022-08-17T01:37:12.279Z,24.76
2022-08-17T01:58:58.721Z,23.15
2022-08-17T02:20:44.913Z,25.86
2022-08-17T02:42:34.753Z,25.53
2022-08-17T03:04:20.617Z,23.08
2022-08-17T03:26:12.288Z,25.64
2022-08-17T03:48:18.909Z,24.96
2022-08-17T04:10:05.182Z,25.85
2022-08-17T04:31:51.267Z,25.03
2022-08-17T04:53:37.510Z,22.88
2022-08-17T05:15:23.465Z,25.79
2022-08-17T05:37:09.253Z,25.48
2022-08-17T05:59:06.063Z,23.84
2022-08-17T06:20:59.939Z,23.60
2022-08-17T06:43:02.548Z,23.75
2022-08-17T07:04:52.732Z,24.18
2022-08-17T07:26:39.641Z,24.74
2022-08-17T07:48:28.032Z,25.53
2022-08-17T08:10:17.077Z,29.93
2022-08-17T08:32:09.148Z,42.82
2022-08-17T08:54:03.584Z,51.55
2022-08-17T09:15:56.075Z,57.95
2022-08-17T09:37:52.566Z,53.21
2022-08-17T09:59:56.673Z,42.70
2022-08-17T10:22:14.494Z,39.63
2022-08-17T10:44:40.358Z,43.75
2022-08-17T11:06:21.593Z,48.77
2022-08-17T11:28:18.660Z,47.33
2022-08-17T11:50:55.401Z,43.46
2022-08-17T12:12:44.339Z,48.70
2022-08-17T12:34:36.298Z,51.62
2022-08-17T12:56:22.333Z,52.02
2022-08-17T13:18:30.464Z,50.71
2022-08-17T13:40:37.721Z,45.45
2022-08-17T14:02:27.653Z,42.50
2022-08-17T14:24:22.293Z,41.28
2022-08-17T14:46:08.415Z,39.91
2022-08-17T15:07:56.022Z,38.84
2022-08-17T15:29:41.774Z,37.75
2022-08-17T15:51:29.842Z,37.25
2022-08-17T16:13:17.371Z,36.90
2022-08-17T16:35:06.500Z,36.39
2022-08-17T16:56:52.238Z,35.08
2022-08-17T17:18:43.820Z,33.93
2022-08-17T17:40:41.423Z,32.76
2022-08-17T18:02:52.100Z,31.59
2022-08-17T18:24:42.810Z,30.77
2022-08-17T18:46:37.621Z,30.19
2022-08-17T19:08:36.263Z,29.38
2022-08-17T19:30:22.481Z,28.55
2022-08-17T19:52:27.144Z,27.90
2022-08-17T20:14:18.595Z,27.36
2022-08-17T20:36:15.646Z,27.00
2022-08-17T20:58:00.468Z,26.68
2022-08-17T21:20:11.092Z,26.44
2022-08-17T21:41:59.376Z,26.32
2022-08-17T22:03:46.274Z,26.17
2022-08-17T22:25:33.217Z,25.99
2022-08-17T22:47:43.019Z,25.67
2022-08-17T23:09:30.143Z,25.17
2022-08-17T23:31:20.153Z,24.79
2022-08-17T23:53:11.665Z,24.46
